Time;durP1;ratioP1;P1;durP2;ratioP2;P2;SDS_P1;SDS_P2;PMS_P1;PMS_P2;Temp;Humidity;BMP_temperature;BMP_pressure;BME280_temperature;BME280_humidity;BME280_pressure;Samples;Min_cycle;Max_cycle;Signal;HPM_P1;HPM_P2
2023/12/03 00:00:25;;;;;;;0.98;0.98;;;;;;;10.12;58.38;100260.81;4990169;28;20416;-87
2023/12/03 00:02:54;;;;;;;1.80;1.70;;;;;;;10.14;58.42;100275.50;5004615;28;20505;-87
2023/12/03 00:05:25;;;;;;;2.85;2.63;;;;;;;9.70;58.65;100272.66;4976200;28;20429;-87
2023/12/03 00:07:51;;;;;;;1.95;1.73;;;;;;;9.70;59.68;100283.25;4991446;28;20409;-88
2023/12/03 00:10:17;;;;;;;1.67;1.23;;;;;;;9.86;59.10;100261.16;4991971;28;20456;-93
2023/12/03 00:12:44;;;;;;;0.70;0.60;;;;;;;9.93;58.54;100275.34;4989920;28;20393;-85
2023/12/03 00:15:09;;;;;;;1.20;1.17;;;;;;;10.02;58.22;100270.81;4989485;28;20953;-89
2023/12/03 00:17:35;;;;;;;2.70;1.10;;;;;;;10.01;58.39;100275.28;4990627;28;20390;-86
2023/12/03 00:20:01;;;;;;;0.37;0.37;;;;;;;10.08;58.16;100286.81;4990470;28;20392;-86
2023/12/03 00:22:26;;;;;;;0.60;0.60;;;;;;;10.04;58.19;100282.84;4989323;28;20742;-83
2023/12/03 00:24:52;;;;;;;1.10;1.00;;;;;;;9.79;58.33;100295.44;5006053;28;20400;-86
2023/12/03 00:27:18;;;;;;;2.38;1.65;;;;;;;9.53;58.78;100293.13;4990127;28;20482;-85
2023/12/03 00:29:43;;;;;;;1.50;1.40;;;;;;;9.38;59.44;100287.72;4989682;28;20818;-85
2023/12/03 00:32:09;;;;;;;1.23;1.07;;;;;;;9.37;59.36;100296.66;5000299;28;20394;-82
2023/12/03 00:34:34;;;;;;;0.65;0.65;;;;;;;9.40;59.37;100303.41;5009139;28;20386;-93
2023/12/03 00:37:00;;;;;;;0.77;0.75;;;;;;;9.53;59.13;100314.28;5008088;28;20400;-85
2023/12/03 00:39:26;;;;;;;0.73;0.73;;;;;;;9.64;58.40;100321.84;5012408;28;20421;-85
2023/12/03 00:41:54;;;;;;;1.80;1.70;;;;;;;9.65;58.85;100341.19;5003131;28;20382;-83
2023/12/03 00:44:20;;;;;;;1.38;1.38;;;;;;;9.70;58.26;100337.00;4995759;28;20469;-82
2023/12/03 00:46:46;;;;;;;2.40;1.20;;;;;;;9.73;58.38;100336.66;4994580;28;21000;-85
2023/12/03 00:49:11;;;;;;;0.80;0.60;;;;;;;9.80;58.42;100338.63;4994102;28;20404;-84
2023/12/03 00:51:37;;;;;;;0.93;0.93;;;;;;;9.78;57.95;100341.47;4994182;28;20911;-87
2023/12/03 00:54:02;;;;;;;0.70;0.70;;;;;;;9.68;58.15;100348.78;4992660;28;20401;-87
2023/12/03 00:56:28;;;;;;;4.40;1.67;;;;;;;9.53;58.80;100351.34;4992903;28;20393;-88
2023/12/03 00:58:54;;;;;;;1.70;1.58;;;;;;;9.40;58.96;100367.75;4992734;28;20421;-86
2023/12/03 01:01:22;;;;;;;0.80;0.80;;;;;;;9.40;59.29;100364.28;4993284;28;20904;-86
2023/12/03 01:03:48;;;;;;;1.40;1.30;;;;;;;9.61;59.10;100379.56;4994018;28;20402;-87
2023/12/03 01:06:13;;;;;;;4.30;1.38;;;;;;;9.63;58.63;100367.81;4993450;28;21585;-84
2023/12/03 01:08:39;;;;;;;0.43;0.43;;;;;;;9.69;59.09;100376.91;4993006;28;20424;-90
2023/12/03 01:11:05;;;;;;;0.73;0.73;;;;;;;9.81;59.24;100388.75;4992707;28;20489;-87
2023/12/03 01:13:32;;;;;;;0.70;0.70;;;;;;;9.84;58.95;100387.59;4991277;28;20833;-86
2023/12/03 01:15:57;;;;;;;5.38;1.42;;;;;;;10.01;60.75;100385.66;4973827;28;20441;-86
2023/12/03 01:18:23;;;;;;;0.60;0.60;;;;;;;10.24;60.05;100386.50;4984621;28;20398;-85
2023/12/03 01:20:49;;;;;;;0.70;0.70;;;;;;;10.39;60.77;100399.03;4980941;28;20917;-91
2023/12/03 01:23:17;;;;;;;0.50;0.50;;;;;;;10.55;61.32;100388.31;5005318;28;20388;-86
2023/12/03 01:25:43;;;;;;;0.90;0.60;;;;;;;10.64;60.90;100389.06;5004807;28;20973;-86
2023/12/03 01:28:08;;;;;;;4.00;0.50;;;;;;;10.75;60.57;100379.88;5006340;28;20427;-87
2023/12/03 01:30:34;;;;;;;1.90;1.80;;;;;;;10.80;60.47;100383.63;4974392;28;20388;-87
2023/12/03 01:33:00;;;;;;;0.80;0.80;;;;;;;10.86;60.96;100396.19;4979506;28;20913;-85
2023/12/03 01:35:25;;;;;;;1.05;1.02;;;;;;;10.87;60.98;100395.16;4986029;28;20399;-85
2023/12/03 01:37:51;;;;;;;0.80;0.80;;;;;;;10.90;61.01;100396.66;4985127;28;20805;-87
2023/12/03 01:40:17;;;;;;;0.50;0.50;;;;;;;11.03;61.15;100396.03;4984795;28;20413;-90
2023/12/03 01:42:42;;;;;;;0.50;0.50;;;;;;;11.15;60.96;100407.84;5011484;28;20439;-88
2023/12/03 01:45:08;;;;;;;0.53;0.53;;;;;;;11.28;60.54;100410.69;5011406;28;20458;-85
2023/12/03 01:47:35;;;;;;;0.25;0.25;;;;;;;11.41;60.13;100417.19;5011820;28;20490;-87
2023/12/03 01:50:06;;;;;;;0.23;0.23;;;;;;;11.52;59.94;100430.00;5006880;28;20490;-84
2023/12/03 01:52:35;;;;;;;0.60;0.60;;;;;;;11.65;59.82;100443.47;4955794;28;20411;-85
2023/12/03 01:55:02;;;;;;;1.25;1.15;;;;;;;11.67;59.67;100443.28;4988736;28;20403;-86
2023/12/03 01:57:27;;;;;;;0.47;0.47;;;;;;;11.64;59.63;100462.22;4982791;28;20503;-85
2023/12/03 01:59:53;;;;;;;0.77;0.75;;;;;;;11.48;60.21;100464.03;4995089;28;20487;-90
2023/12/03 02:02:19;;;;;;;0.85;0.65;;;;;;;11.41;60.89;100460.47;5010953;28;20392;-88
2023/12/03 02:04:47;;;;;;;0.30;0.30;;;;;;;11.31;61.56;100462.59;5011124;28;20462;-82
2023/12/03 02:07:13;;;;;;;0.60;0.57;;;;;;;11.22;62.15;100447.75;5005842;28;20400;-87
2023/12/03 02:09:40;;;;;;;0.60;0.60;;;;;;;11.28;61.78;100444.34;4995734;28;20386;-86
2023/12/03 02:12:06;;;;;;;0.30;0.30;;;;;;;11.28;61.91;100452.31;5012354;28;20407;-84
2023/12/03 02:14:32;;;;;;;0.50;0.50;;;;;;;11.23;62.37;100457.34;5010528;28;20473;-86
2023/12/03 02:16:57;;;;;;;0.20;0.20;;;;;;;11.26;62.07;100457.81;4995145;28;20392;-89
2023/12/03 02:19:23;;;;;;;0.30;0.30;;;;;;;11.12;62.80;100466.56;5001602;28;20815;-87
2023/12/03 02:21:48;;;;;;;1.60;0.80;;;;;;;11.20;62.39;100473.59;5018547;28;20388;-87
2023/12/03 02:24:14;;;;;;;0.10;0.10;;;;;;;11.40;62.26;100495.19;5018279;28;20895;-90
2023/12/03 02:26:40;;;;;;;0.60;0.30;;;;;;;11.48;62.04;100495.06;5029105;28;20410;-89
2023/12/03 02:29:06;;;;;;;0.40;0.40;;;;;;;11.42;62.31;100493.16;5020275;28;20394;-87
2023/12/03 02:31:31;;;;;;;0.20;0.20;;;;;;;11.37;62.31;100500.84;4998132;28;20391;-86
2023/12/03 02:34:07;;;;;;;0.10;0.10;;;;;;;11.52;61.88;100498.19;5028435;28;20503;-90
2023/12/03 02:36:34;;;;;;;0.20;0.20;;;;;;;11.39;62.49;100496.97;5016531;28;20399;-87
2023/12/03 02:39:00;;;;;;;0.20;0.20;;;;;;;11.46;62.21;100508.53;5022424;28;20391;-86
2023/12/03 02:41:26;;;;;;;0.15;0.15;;;;;;;11.55;62.02;100513.78;5028803;28;20897;-88
2023/12/03 02:43:51;;;;;;;0.13;0.13;;;;;;;11.57;61.46;100536.47;5030966;28;20387;-86
2023/12/03 02:46:17;;;;;;;0.10;0.10;;;;;;;11.59;61.59;100544.25;5003852;28;20832;-91
2023/12/03 02:48:43;;;;;;;0.25;0.25;;;;;;;11.62;61.03;100549.22;5019807;28;20449;-89
2023/12/03 02:51:09;;;;;;;0.20;0.20;;;;;;;11.51;61.29;100558.44;5007648;28;20386;-89
2023/12/03 02:53:39;;;;;;;0.15;0.15;;;;;;;11.36;61.37;100561.06;5016573;28;20394;-91
2023/12/03 02:56:05;;;;;;;0.10;0.10;;;;;;;11.40;61.09;100572.16;5031735;28;20491;-93
2023/12/03 02:58:35;;;;;;;0.20;0.20;;;;;;;11.39;60.65;100567.81;5021174;28;20420;-91
2023/12/03 03:01:00;;;;;;;0.10;0.10;;;;;;;11.33;60.56;100573.88;5036569;28;20956;-88
2023/12/03 03:03:26;;;;;;;0.10;0.10;;;;;;;11.17;60.82;100572.97;4998966;28;20416;-88
2023/12/03 03:05:55;;;;;;;0.17;0.17;;;;;;;10.95;60.85;100585.22;5029514;28;20493;-88
2023/12/03 03:08:23;;;;;;;0.10;0.10;;;;;;;11.03;60.45;100589.66;5002608;28;20503;-90
2023/12/03 03:10:49;;;;;;;0.10;0.10;;;;;;;10.96;59.58;100596.66;5002274;28;20392;-88
2023/12/03 03:13:17;;;;;;;0.20;0.20;;;;;;;11.09;59.79;100607.50;5020693;28;20388;-87
2023/12/03 03:15:46;;;;;;;0.13;0.13;;;;;;;10.88;59.38;100616.09;4999519;28;20432;-90
2023/12/03 03:18:12;;;;;;;0.20;0.20;;;;;;;11.02;58.69;100618.00;4999749;28;20384;-88
2023/12/03 03:20:37;;;;;;;0.50;0.50;;;;;;;10.75;58.95;100616.66;5013070;28;20758;-88
2023/12/03 03:23:03;;;;;;;0.20;0.20;;;;;;;10.79;58.88;100636.53;5012531;28;20465;-89
2023/12/03 03:25:29;;;;;;;0.10;0.10;;;;;;;10.88;58.39;100638.13;5012063;28;20952;-87
2023/12/03 03:27:54;;;;;;;0.10;0.10;;;;;;;10.64;58.13;100627.63;5011862;28;20395;-87
2023/12/03 03:30:20;;;;;;;0.10;0.10;;;;;;;10.59;58.48;100645.88;5011377;28;20397;-85
2023/12/03 03:32:46;;;;;;;0.15;0.15;;;;;;;10.39;58.20;100626.91;5029340;28;20886;-88
2023/12/03 03:35:11;;;;;;;0.40;0.40;;;;;;;10.45;57.56;100644.78;5028626;28;20448;-89
2023/12/03 03:37:40;;;;;;;0.20;0.20;;;;;;;10.39;57.37;100656.06;5012560;28;20399;-85
2023/12/03 03:40:06;;;;;;;0.15;0.15;;;;;;;10.31;57.45;100657.72;5011967;28;20511;-89
2023/12/03 03:42:32;;;;;;;0.80;0.80;;;;;;;10.25;56.63;100666.34;5012075;28;20451;-86
2023/12/03 03:44:58;;;;;;;0.20;0.20;;;;;;;10.04;56.97;100658.91;5012319;28;20544;-86
2023/12/03 03:47:24;;;;;;;0.10;0.10;;;;;;;10.03;56.80;100657.28;5012063;28;20386;-84
2023/12/03 03:49:49;;;;;;;0.20;0.20;;;;;;;9.99;56.43;100660.41;5011674;28;20493;-88
2023/12/03 03:52:17;;;;;;;0.10;0.10;;;;;;;9.91;56.73;100666.56;5011364;28;20521;-86
2023/12/03 03:54:49;;;;;;;0.10;0.10;;;;;;;9.62;57.05;100675.00;5010804;28;20426;-87
2023/12/03 03:57:14;;;;;;;0.23;0.23;;;;;;;9.71;56.90;100695.19;5011148;28;20472;-84
2023/12/03 03:59:44;;;;;;;0.10;0.10;;;;;;;9.67;56.81;100694.69;5011197;28;20395;-85
2023/12/03 04:02:09;;;;;;;0.10;0.10;;;;;;;9.54;57.10;100713.69;4979110;28;20409;-86
2023/12/03 04:04:35;;;;;;;0.20;0.20;;;;;;;9.73;56.27;100727.59;5030292;28;20391;-85
2023/12/03 04:07:01;;;;;;;1.10;0.60;;;;;;;9.50;56.27;100722.09;5031237;28;20904;-87
2023/12/03 04:09:27;;;;;;;0.40;0.40;;;;;;;9.44;55.73;100728.06;5013008;28;20386;-88
2023/12/03 04:11:53;;;;;;;0.37;0.37;;;;;;;9.44;55.53;100730.72;5029687;28;20390;-89
2023/12/03 04:14:18;;;;;;;0.60;0.60;;;;;;;9.07;55.62;100724.78;5013231;28;20409;-86
2023/12/03 04:16:44;;;;;;;1.03;0.97;;;;;;;9.02;54.74;100723.63;5013925;28;20422;-89
2023/12/03 04:19:13;;;;;;;0.13;0.13;;;;;;;9.09;54.79;100737.84;5030593;28;20429;-90
2023/12/03 04:21:39;;;;;;;0.20;0.20;;;;;;;8.92;55.23;100718.47;5011482;28;20412;-89
2023/12/03 04:24:05;;;;;;;0.35;0.35;;;;;;;9.02;54.84;100728.91;5010178;28;20460;-90
2023/12/03 04:26:31;;;;;;;0.40;0.40;;;;;;;8.93;54.93;100743.91;5011599;28;20406;-90
2023/12/03 04:28:57;;;;;;;0.30;0.30;;;;;;;8.92;54.68;100740.44;5011714;28;20757;-86
2023/12/03 04:31:25;;;;;;;0.60;0.50;;;;;;;8.85;54.41;100749.16;5028393;28;20397;-88
2023/12/03 04:33:53;;;;;;;0.22;0.22;;;;;;;8.87;53.56;100760.41;5012257;28;20402;-85
2023/12/03 04:36:23;;;;;;;0.40;0.40;;;;;;;8.59;54.12;100761.41;5012042;28;20405;-88
2023/12/03 04:38:50;;;;;;;0.73;0.73;;;;;;;8.71;53.99;100763.78;5012122;28;20739;-85
2023/12/03 04:41:22;;;;;;;0.20;0.20;;;;;;;8.32;54.76;100772.06;5011446;28;20405;-89
2023/12/03 04:43:50;;;;;;;0.28;0.28;;;;;;;8.14;54.22;100770.31;5027336;28;20481;-87
2023/12/03 04:46:16;;;;;;;0.45;0.40;;;;;;;8.15;54.46;100808.91;5028566;28;20480;-87
2023/12/03 04:48:42;;;;;;;0.70;0.70;;;;;;;8.24;53.99;100833.59;5011674;28;20801;-90
2023/12/03 04:51:11;;;;;;;0.20;0.20;;;;;;;8.17;53.73;100819.34;5012316;28;20460;-87
2023/12/03 04:53:37;;;;;;;0.75;0.75;;;;;;;8.26;53.28;100834.25;5012299;28;20429;-85
2023/12/03 04:56:03;;;;;;;0.70;0.53;;;;;;;7.94;53.57;100842.72;5011774;28;20430;-90
2023/12/03 04:58:29;;;;;;;3.47;1.08;;;;;;;7.73;54.10;100856.19;5027907;28;20525;-88
2023/12/03 05:00:54;;;;;;;0.80;0.80;;;;;;;7.59;54.37;100836.41;5011486;28;20387;-87
2023/12/03 05:03:21;;;;;;;0.73;0.47;;;;;;;7.58;54.29;100829.47;5010650;28;20460;-89
2023/12/03 05:05:46;;;;;;;0.38;0.38;;;;;;;7.54;53.92;100841.28;5010464;28;20839;-84
2023/12/03 05:08:12;;;;;;;0.67;0.67;;;;;;;7.53;53.95;100855.47;5010572;28;20917;-85
2023/12/03 05:10:38;;;;;;;0.40;0.40;;;;;;;7.47;53.75;100865.63;5009687;28;20450;-87
2023/12/03 05:13:04;;;;;;;0.40;0.40;;;;;;;7.35;53.77;100839.59;5008776;28;20425;-88
2023/12/03 05:15:29;;;;;;;0.47;0.47;;;;;;;6.80;55.52;100864.84;5009183;28;20425;-85
2023/12/03 05:17:55;;;;;;;1.02;1.00;;;;;;;6.68;55.30;100871.25;5010222;28;20405;-86
2023/12/03 05:20:21;;;;;;;0.70;0.70;;;;;;;6.68;55.64;100868.59;5011564;28;20481;-88
2023/12/03 05:22:46;;;;;;;0.70;0.70;;;;;;;6.77;55.30;100895.91;5011518;28;20422;-87
2023/12/03 05:25:13;;;;;;;1.27;1.17;;;;;;;6.66;55.33;100910.94;5030195;28;20935;-86
2023/12/03 05:27:38;;;;;;;1.13;0.85;;;;;;;6.56;55.45;100918.00;5037571;22;20435;-86
2023/12/03 05:30:06;;;;;;;0.45;0.45;;;;;;;6.04;56.32;100915.56;5028568;28;20403;-89
2023/12/03 05:32:33;;;;;;;1.50;1.10;;;;;;;6.30;56.01;100918.53;5012741;28;20770;-86
2023/12/03 05:34:59;;;;;;;0.57;0.57;;;;;;;6.51;55.37;100926.28;5028794;28;20404;-86
2023/12/03 05:37:28;;;;;;;0.37;0.37;;;;;;;6.32;55.42;100945.56;5013579;28;20384;-89
2023/12/03 05:39:55;;;;;;;0.63;0.63;;;;;;;6.08;55.73;100940.66;5013403;28;20376;-87
2023/12/03 05:42:21;;;;;;;2.00;1.55;;;;;;;5.98;56.39;100946.84;5012008;28;20420;-88
2023/12/03 05:44:47;;;;;;;0.50;0.50;;;;;;;6.12;56.04;100959.63;5011845;28;20838;-89
2023/12/03 05:47:12;;;;;;;0.43;0.43;;;;;;;6.07;56.09;100959.22;5010621;28;20411;-87
2023/12/03 05:49:39;;;;;;;1.20;1.10;;;;;;;6.03;55.75;100963.06;5028444;28;20388;-89
2023/12/03 05:52:04;;;;;;;1.27;0.35;;;;;;;6.13;55.63;100971.84;5013019;28;20392;-88
2023/12/03 05:54:30;;;;;;;0.82;0.82;;;;;;;6.02;55.60;100987.75;5014104;28;20911;-88
2023/12/03 05:56:56;;;;;;;0.30;0.30;;;;;;;5.98;55.75;100992.44;5012884;28;20453;-87
2023/12/03 05:59:22;;;;;;;0.93;0.93;;;;;;;5.75;56.07;100994.38;5012413;28;20471;-86
2023/12/03 06:01:49;;;;;;;2.13;0.60;;;;;;;5.43;57.04;101002.38;5011849;28;20534;-87
2023/12/03 06:04:14;;;;;;;0.30;0.30;;;;;;;5.51;56.02;101013.06;5011191;28;20380;-88
2023/12/03 06:06:40;;;;;;;2.30;1.60;;;;;;;5.34;57.06;101012.69;5028836;28;20440;-88
2023/12/03 06:09:09;;;;;;;0.70;0.70;;;;;;;5.85;55.81;101012.84;5028424;28;20392;-88
2023/12/03 06:11:35;;;;;;;0.73;0.73;;;;;;;5.82;55.68;101032.34;5012085;28;20396;-90
2023/12/03 06:14:01;;;;;;;0.40;0.30;;;;;;;5.67;55.81;101021.34;5011633;28;20396;-89
2023/12/03 06:16:27;;;;;;;0.50;0.50;;;;;;;5.48;56.31;101011.53;5012235;28;20392;-89
2023/12/03 06:18:53;;;;;;;1.45;0.98;;;;;;;5.41;56.34;101027.97;5011996;28;20391;-90
2023/12/03 06:21:19;;;;;;;0.40;0.40;;;;;;;5.31;56.22;101033.16;5027773;28;20418;-89
2023/12/03 06:23:44;;;;;;;0.22;0.22;;;;;;;5.59;55.88;101044.00;5013661;28;20385;-88
2023/12/03 06:26:10;;;;;;;0.47;0.40;;;;;;;5.41;56.13;101064.78;5013213;28;20411;-88
2023/12/03 06:28:36;;;;;;;0.30;0.30;;;;;;;5.27;56.70;101047.50;5012804;28;20408;-90
2023/12/03 06:31:05;;;;;;;0.67;0.67;;;;;;;5.25;56.27;101055.53;5029356;28;20399;-88
2023/12/03 06:33:30;;;;;;;0.30;0.30;;;;;;;5.36;55.55;101044.94;4995473;28;20435;-88
2023/12/03 06:35:56;;;;;;;0.30;0.30;;;;;;;5.36;55.78;101031.78;5027709;28;20407;-87
2023/12/03 06:38:22;;;;;;;1.00;0.90;;;;;;;5.50;55.53;101059.56;5010986;28;20396;-87
2023/12/03 06:40:47;;;;;;;0.30;0.30;;;;;;;5.61;55.30;101071.00;5011205;28;20384;-87
2023/12/03 06:43:13;;;;;;;0.20;0.20;;;;;;;5.48;54.85;101074.66;5012044;28;20392;-86
2023/12/03 06:45:39;;;;;;;0.20;0.20;;;;;;;5.77;54.54;101081.88;5029062;28;20875;-88
2023/12/03 06:48:05;;;;;;;0.52;0.52;;;;;;;5.63;54.04;101092.75;5028206;28;20427;-87
2023/12/03 06:50:50;;;;;;;0.17;0.17;;;;;;;5.45;54.41;101103.81;5030573;28;20422;-89
2023/12/03 06:53:15;;;;;;;2.97;1.25;;;;;;;5.48;54.22;101108.81;5012002;28;20474;-89
2023/12/03 06:55:41;;;;;;;0.67;0.67;;;;;;;5.48;53.98;101123.78;5011729;28;20878;-88
2023/12/03 06:58:07;;;;;;;0.30;0.30;;;;;;;5.32;54.61;101138.16;5011404;28;20395;-92
2023/12/03 07:00:33;;;;;;;0.40;0.40;;;;;;;5.69;53.53;101134.28;5027721;28;20483;-89
2023/12/03 07:02:59;;;;;;;0.20;0.20;;;;;;;5.55;54.28;101159.13;5011859;28;20420;-88
2023/12/03 07:05:25;;;;;;;0.80;0.75;;;;;;;5.51;53.88;101152.44;5028317;28;20930;-88
2023/12/03 07:07:51;;;;;;;0.70;0.70;;;;;;;5.26;54.91;101149.19;5011428;28;20399;-90
2023/12/03 07:10:18;;;;;;;1.00;0.50;;;;;;;5.42;54.03;101153.19;5014492;28;20459;-90
2023/12/03 07:12:43;;;;;;;0.90;0.20;;;;;;;5.67;53.28;101158.13;5011971;28;20399;-88
2023/12/03 07:15:10;;;;;;;0.30;0.30;;;;;;;5.75;53.77;101168.00;5014067;28;20775;-90
2023/12/03 07:17:37;;;;;;;0.60;0.60;;;;;;;5.91;53.52;101178.91;5013684;28;20396;-90
2023/12/03 07:20:03;;;;;;;0.20;0.20;;;;;;;5.92;53.33;101192.91;5029889;28;20445;-89
2023/12/03 07:22:29;;;;;;;0.20;0.20;;;;;;;5.93;53.03;101198.03;5013502;28;20400;-88
2023/12/03 07:24:55;;;;;;;0.30;0.30;;;;;;;5.73;53.44;101190.97;5013682;28;20427;-89
2023/12/03 07:27:20;;;;;;;0.40;0.40;;;;;;;5.95;53.03;101211.06;5020183;28;20424;-90
2023/12/03 07:29:46;;;;;;;0.50;0.50;;;;;;;5.94;52.87;101209.38;5052270;28;20450;-88
2023/12/03 07:32:12;;;;;;;0.40;0.40;;;;;;;6.10;52.71;101201.94;5035986;28;20408;-91
2023/12/03 07:34:38;;;;;;;0.60;0.60;;;;;;;6.24;52.85;101208.66;5027742;28;20400;-90
2023/12/03 07:37:03;;;;;;;0.40;0.40;;;;;;;6.12;52.85;101221.06;5014565;28;20391;-86
2023/12/03 07:39:29;;;;;;;0.20;0.20;;;;;;;6.01;53.23;101236.88;5015467;28;20392;-86
2023/12/03 07:41:55;;;;;;;0.40;0.40;;;;;;;5.95;52.90;101240.00;4988660;28;20397;-86
2023/12/03 07:44:21;;;;;;;0.30;0.30;;;;;;;5.91;52.96;101249.97;4975566;28;20427;-86
2023/12/03 07:46:52;;;;;;;0.60;0.60;;;;;;;6.05;52.51;101251.50;4971817;28;20413;-86
2023/12/03 07:49:17;;;;;;;0.75;0.75;;;;;;;6.02;53.04;101261.44;4987654;28;20390;-87
2023/12/03 07:51:46;;;;;;;0.70;0.70;;;;;;;6.23;51.96;101258.78;4989560;28;20430;-87
2023/12/03 07:54:11;;;;;;;0.50;0.50;;;;;;;5.93;51.94;101242.75;4988384;28;20401;-86
2023/12/03 07:56:39;;;;;;;0.33;0.33;;;;;;;6.03;51.82;101260.44;4972331;28;20424;-87
2023/12/03 07:59:05;;;;;;;0.90;0.90;;;;;;;6.00;51.99;101256.28;4979435;28;20399;-85
2023/12/03 08:01:31;;;;;;;0.50;0.50;;;;;;;5.96;51.41;101265.41;4971323;28;20900;-87
2023/12/03 08:04:00;;;;;;;0.70;0.70;;;;;;;6.08;51.43;101284.59;4970702;28;20799;-87
2023/12/03 08:06:26;;;;;;;0.85;0.55;;;;;;;6.18;51.89;101288.16;4978714;28;20536;-85
2023/12/03 08:08:54;;;;;;;0.95;0.95;;;;;;;6.30;50.89;101302.06;4969542;28;22640;-87
2023/12/03 08:11:20;;;;;;;0.40;0.40;;;;;;;5.98;51.01;101313.47;4969208;28;20777;-85
2023/12/03 08:13:46;;;;;;;3.40;1.00;;;;;;;5.80;51.49;101313.16;4987999;28;20401;-84
2023/12/03 08:16:12;;;;;;;0.55;0.55;;;;;;;5.79;51.70;101314.09;4987706;28;20397;-85
2023/12/03 08:18:38;;;;;;;0.60;0.60;;;;;;;6.13;51.20;101321.91;4971246;28;20390;-85
2023/12/03 08:21:07;;;;;;;0.80;0.50;;;;;;;6.31;50.76;101315.13;4998031;28;20473;-86
2023/12/03 08:23:34;;;;;;;0.40;0.40;;;;;;;6.25;51.01;101315.63;5000755;28;20389;-85
2023/12/03 08:26:04;;;;;;;0.30;0.30;;;;;;;6.32;50.55;101322.06;5005153;28;20412;-84
2023/12/03 08:28:30;;;;;;;0.50;0.40;;;;;;;6.64;50.60;101325.59;4998810;28;20401;-87
2023/12/03 08:30:57;;;;;;;0.90;0.90;;;;;;;6.77;49.97;101318.34;5008764;28;20398;-86
2023/12/03 08:33:23;;;;;;;0.22;0.22;;;;;;;6.85;49.78;101312.41;5003059;28;20419;-84
2023/12/03 08:35:49;;;;;;;0.40;0.40;;;;;;;6.91;50.25;101314.50;5033584;28;20408;-92
2023/12/03 08:38:15;;;;;;;0.20;0.20;;;;;;;6.89;49.81;101321.72;5035279;28;20471;-90
2023/12/03 08:40:41;;;;;;;0.28;0.28;;;;;;;7.03;49.80;101313.47;5036556;28;20400;-86
2023/12/03 08:43:07;;;;;;;1.27;1.17;;;;;;;7.15;49.55;101308.94;5037439;28;20392;-86
2023/12/03 08:45:36;;;;;;;0.55;0.55;;;;;;;7.18;49.32;101313.09;5011199;28;20933;-90
2023/12/03 08:48:08;;;;;;;0.77;0.77;;;;;;;7.14;49.69;101317.81;5014421;28;20899;-89
2023/12/03 08:50:34;;;;;;;0.82;0.82;;;;;;;7.08;49.88;101321.00;5014657;28;20422;-89
2023/12/03 08:53:03;;;;;;;0.30;0.30;;;;;;;7.25;49.66;101320.34;5005172;28;20397;-89
2023/12/03 08:55:31;;;;;;;0.50;0.50;;;;;;;7.12;49.05;101311.00;5011285;28;20404;-89
2023/12/03 08:57:58;;;;;;;0.20;0.20;;;;;;;6.83;49.41;101331.00;4995579;28;20412;-87
2023/12/03 09:00:28;;;;;;;0.40;0.40;;;;;;;6.81;48.95;101322.38;5016526;28;20388;-90
2023/12/03 09:02:56;;;;;;;1.38;0.38;;;;;;;6.44;49.14;101319.38;5003483;28;20381;-91
2023/12/03 09:05:22;;;;;;;0.20;0.20;;;;;;;6.42;49.34;101302.88;4997797;28;20410;-85
2023/12/03 09:07:48;;;;;;;0.20;0.20;;;;;;;6.68;48.99;101319.97;5007373;28;20391;-88
2023/12/03 09:10:14;;;;;;;0.40;0.40;;;;;;;6.83;48.54;101327.53;5008872;28;20392;-88
2023/12/03 09:12:42;;;;;;;0.43;0.43;;;;;;;6.78;48.39;101345.53;5012757;28;20486;-88
2023/12/03 09:15:11;;;;;;;0.77;0.35;;;;;;;6.81;48.27;101338.19;5016070;28;20394;-87
2023/12/03 09:17:48;;;;;;;0.20;0.20;;;;;;;6.78;48.88;101327.06;5014896;28;20392;-88
2023/12/03 09:20:14;;;;;;;0.25;0.25;;;;;;;6.66;48.66;101315.75;5014243;28;20408;-88
2023/12/03 09:22:43;;;;;;;0.30;0.30;;;;;;;6.76;48.44;101306.13;5012249;28;21061;-88
2023/12/03 09:25:12;;;;;;;0.60;0.60;;;;;;;7.21;48.27;101324.22;5013668;28;20396;-88
2023/12/03 09:27:39;;;;;;;0.30;0.30;;;;;;;7.34;47.75;101329.25;5013841;28;20404;-88
2023/12/03 09:30:05;;;;;;;0.32;0.32;;;;;;;7.16;48.23;101313.25;5012390;28;20982;-88
2023/12/03 09:32:34;;;;;;;0.60;0.50;;;;;;;6.94;48.61;101313.44;5012362;28;20806;-89
2023/12/03 09:35:00;;;;;;;0.53;0.53;;;;;;;7.10;48.59;101323.50;5012403;28;20396;-89
2023/12/03 09:37:29;;;;;;;0.40;0.40;;;;;;;7.14;48.24;101320.44;5011887;28;20391;-88
2023/12/03 09:39:59;;;;;;;0.30;0.30;;;;;;;7.12;48.48;101329.47;5013727;28;20392;-87
2023/12/03 09:42:29;;;;;;;0.50;0.50;;;;;;;7.23;48.39;101319.66;5016052;28;20392;-87
2023/12/03 09:45:04;;;;;;;0.40;0.40;;;;;;;7.13;47.84;101316.16;5023736;28;20463;-87
2023/12/03 09:47:35;;;;;;;0.13;0.13;;;;;;;7.13;48.03;101316.16;5014839;28;20502;-89
2023/12/03 09:50:02;;;;;;;0.40;0.40;;;;;;;7.02;48.20;101298.63;5013364;28;20400;-86
2023/12/03 09:52:30;;;;;;;0.55;0.55;;;;;;;7.08;48.15;101307.81;5015231;28;20392;-87
2023/12/03 09:54:58;;;;;;;0.90;0.75;;;;;;;6.88;48.07;101307.72;4998443;28;20404;-87
2023/12/03 09:57:29;;;;;;;0.20;0.20;;;;;;;7.02;48.55;101313.59;5013628;28;20502;-86
2023/12/03 10:00:05;;;;;;;0.57;0.57;;;;;;;7.07;48.28;101300.84;5015417;28;20914;-88
2023/12/03 10:02:34;;;;;;;0.55;0.35;;;;;;;7.26;47.49;101319.38;5015847;28;20408;-88
2023/12/03 10:05:02;;;;;;;0.40;0.40;;;;;;;7.55;47.49;101315.19;5019340;28;20408;-86
2023/12/03 10:07:30;;;;;;;0.50;0.50;;;;;;;7.72;47.13;101318.94;5020255;28;20496;-90
2023/12/03 10:10:00;;;;;;;0.45;0.45;;;;;;;7.64;46.74;101331.03;5014465;28;21126;-86
2023/12/03 10:12:41;;;;;;;0.10;0.10;;;;;;;7.70;47.16;101319.09;5016468;28;20549;-88
2023/12/03 10:15:09;;;;;;;0.30;0.30;;;;;;;7.31;47.21;101315.50;5014498;28;20464;-89
2023/12/03 10:17:35;;;;;;;0.50;0.50;;;;;;;7.15;47.31;101322.13;4997384;28;20427;-87
2023/12/03 10:20:27;;;;;;;0.25;0.25;;;;;;;7.32;47.67;101323.28;5014612;28;20392;-91
2023/12/03 10:23:04;;;;;;;0.90;0.60;;;;;;;7.29;47.57;101331.47;5013561;28;20392;-87
2023/12/03 10:25:36;;;;;;;0.43;0.43;;;;;;;7.14;48.01;101338.09;5014877;28;20408;-88
2023/12/03 10:28:11;;;;;;;0.50;0.50;;;;;;;7.30;46.66;101330.50;5008326;28;20412;-88
2023/12/03 10:30:37;;;;;;;0.40;0.40;;;;;;;7.40;46.68;101326.13;5011909;28;20415;-88
2023/12/03 10:33:04;;;;;;;2.40;2.20;;;;;;;7.45;46.19;101338.88;5028293;28;20408;-88
2023/12/03 10:35:41;;;;;;;0.30;0.30;;;;;;;7.82;46.33;101351.47;5013089;28;20392;-87
2023/12/03 10:38:09;;;;;;;1.90;1.60;;;;;;;7.95;45.92;101346.75;5012663;28;20427;-87
2023/12/03 10:40:37;;;;;;;0.50;0.50;;;;;;;7.80;46.04;101350.78;5012377;28;20539;-87
2023/12/03 10:43:06;;;;;;;0.20;0.20;;;;;;;7.63;46.28;101318.81;5012873;28;20976;-88
2023/12/03 10:45:32;;;;;;;0.75;0.75;;;;;;;8.02;46.24;101332.03;5012235;28;20415;-84
2023/12/03 10:48:05;;;;;;;0.50;0.50;;;;;;;7.81;45.64;101329.53;5002606;28;20398;-89
2023/12/03 10:50:31;;;;;;;0.52;0.52;;;;;;;7.63;45.50;101325.88;5004485;28;20429;-88
2023/12/03 10:53:01;;;;;;;0.40;0.40;;;;;;;7.73;45.79;101349.66;5008686;28;20456;-88
2023/12/03 10:55:28;;;;;;;2.95;0.77;;;;;;;7.57;45.81;101345.72;5017474;28;20396;-89
2023/12/03 10:58:03;;;;;;;0.50;0.50;;;;;;;7.64;45.77;101346.84;5008561;28;20428;-90
2023/12/03 11:00:55;;;;;;;0.50;0.50;;;;;;;7.63;45.69;101339.06;5017416;28;20399;-88
2023/12/03 11:03:30;;;;;;;0.20;0.20;;;;;;;7.58;45.54;101331.56;5019533;28;20802;-88
2023/12/03 11:06:00;;;;;;;0.43;0.43;;;;;;;7.66;45.70;101342.28;5009295;28;20804;-86
2023/12/03 11:08:26;;;;;;;0.20;0.20;;;;;;;7.57;46.17;101329.91;5011860;28;20405;-87
2023/12/03 11:10:55;;;;;;;0.90;0.90;;;;;;;7.79;45.96;101341.19;5007869;28;20485;-88
2023/12/03 11:13:28;;;;;;;1.70;0.80;;;;;;;7.90;45.55;101350.78;5010335;28;20396;-89
2023/12/03 11:15:57;;;;;;;0.30;0.30;;;;;;;7.24;46.54;101367.97;4999148;28;20406;-88
2023/12/03 11:18:24;;;;;;;1.85;1.67;;;;;;;6.98;47.36;101364.91;5003894;28;20454;-87
2023/12/03 11:20:51;;;;;;;0.57;0.57;;;;;;;6.81;48.02;101369.00;5010997;28;20396;-88
2023/12/03 11:24:16;;;;;;;2.70;0.50;;;;;;;6.91;46.78;101364.59;5010602;28;20392;-88
2023/12/03 11:26:42;;;;;;;0.30;0.30;;;;;;;7.30;45.98;101383.25;4906523;29;21007;-88
2023/12/03 11:29:11;;;;;;;0.30;0.30;;;;;;;7.39;45.66;101390.38;4981495;28;20413;-87
2023/12/03 11:31:37;;;;;;;0.30;0.30;;;;;;;7.26;45.30;101395.03;4987016;28;20930;-88